Strona główna
METAR-TAF:

METAR-TAF

Lotnisko :

Port lotniczy Caen-Carpiquet

Caen, Francja

Szerokość geograficzna: 49-11N, Długość geograficzna: 000-27W, wysokość: 78 m

Aktualna obserwacja pogody

Raport powstał 22 minut temu, godzina 23:30 UTC
Wiatr 5 kt od wschodnio-południowy wschód
Temperatura 7°C
Wilgotność 100%
Ciśnienie 1018 hPa
Widzialność: 4800 m
zamglenie

METAR: LFRK 262330Z AUTO 11005KT 4800 BR NSC 07/07 Q1018

czas: 00:52 (23:52 UTC)

Prognoza

Raport powstał 6 godziny i 1 minut temu, godzina 17:51 UTC
Prognoza ważna od 26 godzina 17 UTC do 26 godzina 24 UTC
Wiatr 3 kt z kierunków zmiennych
Widzialność: 2000 m
zamglenie
Przejściowo
od 26 godzina 18 UTC do 26 godzina 24 UTC
Widzialność: 0400 m
mgła

TAF: LFRK 261751Z 2617/2624 VRB03KT 2000 BR NSC TEMPO 2618/2624 0400 FG VV///

Obserwacja i prognoza pogody dla ponad 4000 lotnisk (raport METAR i TAF).

Dostępne stacje oznaczono żółtymi i czerwonymi punktami na mapie.

Najedź kursorem aby zobaczyć nazwę stacji.

Kliknij aby zobaczyć obserwacje i prognozy pogody.

Aby zmienić mapę: kliknij na zielony przycisk z czarnym krzyżykiem, aby powiększyć; na zielony przycisk z myślnikiem, aby pomniejszyć; na zielone strzałki, aby przejść do map sąsiednich.


METAR-TAF: